Time;durP1;ratioP1;P1;durP2;ratioP2;P2;SDS_P1;SDS_P2;PMS_P1;PMS_P2;Temp;Humidity;BMP_temperature;BMP_pressure;BME280_temperature;BME280_humidity;BME280_pressure;Samples;Min_cycle;Max_cycle;Signal;HPM_P1;HPM_P2
2021/05/31 08:52:16;;;;;;;32.10;4.93;;;20.60;52.50;;;;;;5238824;27;21037;-57
2021/05/31 08:54:49;;;;;;;16.60;4.55;;;20.70;52.90;;;;;;5188607;28;20063;-58
2021/05/31 08:57:26;;;;;;;14.70;4.15;;;20.80;52.60;;;;;;5164312;28;20171;-59
2021/05/31 09:00:07;;;;;;;10.77;4.22;;;20.90;52.20;;;;;;5157268;28;20265;-58
2021/05/31 09:02:40;;;;;;;14.60;4.07;;;21.10;51.80;;;;;;5154903;28;20057;-57
2021/05/31 09:05:13;;;;;;;14.32;4.22;;;21.20;51.40;;;;;;5158562;28;20074;-59
2021/05/31 09:07:51;;;;;;;21.58;4.68;;;21.30;50.80;;;;;;5164415;28;20504;-57
2021/05/31 09:10:24;;;;;;;18.75;4.75;;;21.40;51.00;;;;;;5165344;28;20049;-57
2021/05/31 09:12:57;;;;;;;9.02;4.15;;;21.60;51.00;;;;;;5156995;28;20544;-58
2021/05/31 09:15:30;;;;;;;10.00;3.53;;;21.70;50.30;;;;;;5168237;28;20123;-56
2021/05/31 09:18:03;;;;;;;12.05;3.75;;;21.80;50.40;;;;;;5179720;28;20049;-55
2021/05/31 09:20:35;;;;;;;10.90;3.53;;;21.90;50.30;;;;;;5180906;28;20612;-55
2021/05/31 09:23:08;;;;;;;12.95;3.85;;;22.00;50.30;;;;;;5180831;28;20164;-58
2021/05/31 09:25:41;;;;;;;15.07;4.13;;;22.10;50.10;;;;;;5169539;28;21190;-56
2021/05/31 09:28:13;;;;;;;14.43;3.90;;;22.10;50.00;;;;;;5200355;28;20520;-55
2021/05/31 09:30:46;;;;;;;12.97;4.13;;;22.20;49.80;;;;;;5200219;28;20057;-55
2021/05/31 09:33:19;;;;;;;12.83;4.33;;;22.20;49.80;;;;;;5193394;28;20053;-56
2021/05/31 09:35:52;;;;;;;15.17;3.63;;;22.30;49.70;;;;;;5194849;28;20041;-56
2021/05/31 09:38:25;;;;;;;12.23;4.47;;;22.30;50.10;;;;;;5198440;28;20041;-56
2021/05/31 09:40:57;;;;;;;16.00;3.88;;;22.40;49.50;;;;;;5209688;28;20052;-55
2021/05/31 09:43:31;;;;;;;12.55;3.85;;;22.40;49.00;;;;;;5192687;28;20044;-55
2021/05/31 09:46:04;;;;;;;18.42;3.83;;;22.50;49.60;;;;;;5191757;28;20045;-55
2021/05/31 09:48:37;;;;;;;16.38;3.92;;;22.50;50.20;;;;;;5182792;28;20049;-56
2021/05/31 09:51:13;;;;;;;15.32;4.75;;;22.60;49.40;;;;;;5179950;28;20041;-58
2021/05/31 09:53:48;;;;;;;10.85;3.15;;;22.60;49.20;;;;;;5179325;28;20457;-57
2021/05/31 09:56:21;;;;;;;10.55;3.53;;;22.60;49.20;;;;;;5185036;28;20037;-55
2021/05/31 09:59:02;;;;;;;15.52;3.38;;;22.60;49.10;;;;;;5191217;28;20049;-53
2021/05/31 10:01:39;;;;;;;11.07;4.60;;;22.70;49.30;;;;;;5174124;28;20056;-54
2021/05/31 10:09:37;;;;;;;10.55;3.72;;;22.70;49.60;;;;;;5163993;28;20300;-56
2021/05/31 10:12:10;;;;;;;6.60;3.58;;;22.70;50.20;;;;;;5159143;28;20740;-55
2021/05/31 10:14:43;;;;;;;;;;;;;;;;;;5171244;28;20045;-57
2021/05/31 10:17:16;;;;;;;9.70;4.00;;;22.70;49.50;;;;;;5175318;28;20524;-54
2021/05/31 10:19:49;;;;;;;14.45;3.58;;;22.70;49.90;;;;;;5164960;28;20049;-57
2021/05/31 10:22:21;;;;;;;13.88;3.22;;;22.70;49.30;;;;;;5166756;28;20577;-55
2021/05/31 10:24:54;;;;;;;13.38;3.60;;;22.70;49.00;;;;;;5163536;28;20784;-57
2021/05/31 10:27:29;;;;;;;6.28;2.97;;;22.70;50.20;;;;;;5177678;28;20046;-56
2021/05/31 10:30:03;;;;;;;9.55;3.42;;;22.70;49.40;;;;;;5193226;28;20092;-55
2021/05/31 10:32:36;;;;;;;14.15;3.85;;;22.70;49.70;;;;;;5176246;28;20038;-55
2021/05/31 10:35:20;;;;;;;7.97;3.47;;;22.80;49.50;;;;;;5179717;28;21249;-57
2021/05/31 10:37:57;;;;;;;11.80;3.58;;;;;;;;;;5200094;28;20060;-56
2021/05/31 10:40:34;;;;;;;9.63;3.35;;;;;;;;;;5198151;28;20045;-56
2021/05/31 10:43:07;;;;;;;8.68;3.10;;;;;;;;;;5197073;28;20055;-56
2021/05/31 10:45:41;;;;;;;9.32;2.70;;;22.70;49.60;;;;;;5199060;28;20456;-56
2021/05/31 10:48:19;;;;;;;12.35;3.72;;;22.80;50.40;;;;;;5200431;28;20596;-56
2021/05/31 10:50:53;;;;;;;10.43;2.90;;;22.80;49.50;;;;;;5201834;28;20762;-57
2021/05/31 10:53:30;;;;;;;10.30;3.08;;;;;;;;;;5200282;28;20040;-56
2021/05/31 10:56:05;;;;;;;6.82;3.20;;;;;;;;;;5198671;28;20060;-57
2021/05/31 10:58:47;;;;;;;18.02;3.22;;;;;;;;;;5187070;28;20044;-56
2021/05/31 11:01:24;;;;;;;9.55;3.85;;;;;;;;;;5191809;28;20068;-56
2021/05/31 11:04:01;;;;;;;7.65;2.95;;;22.70;50.30;;;;;;5185427;28;20053;-55
2021/05/31 11:06:42;;;;;;;12.27;3.20;;;;;;;;;;5186776;28;20691;-53
2021/05/31 11:09:19;;;;;;;10.52;3.38;;;22.80;49.50;;;;;;5185301;28;20433;-53
2021/05/31 11:11:54;;;;;;;8.85;3.33;;;22.80;49.50;;;;;;5183255;28;20052;-57
2021/05/31 11:14:40;;;;;;;9.23;3.25;;;22.80;49.70;;;;;;5180120;28;20052;-55
2021/05/31 11:17:14;;;;;;;8.77;3.17;;;22.80;49.50;;;;;;5185792;28;20056;-57
2021/05/31 11:19:50;;;;;;;;;;;22.80;49.60;;;;;;5189825;28;20881;-53
2021/05/31 11:22:28;;;;;;;9.55;3.08;;;22.80;49.70;;;;;;5183677;28;19935;-55
2021/05/31 11:25:05;;;;;;;5.32;2.70;;;22.80;49.10;;;;;;5178707;28;20057;-56
2021/05/31 11:27:40;;;;;;;8.13;2.80;;;22.80;49.60;;;;;;5185923;28;20052;-55
2021/05/31 11:30:18;;;;;;;13.57;3.05;;;22.80;49.60;;;;;;5185404;28;20061;-55
2021/05/31 11:32:55;;;;;;;8.60;3.38;;;22.80;49.70;;;;;;5176109;28;20049;-58
2021/05/31 11:35:29;;;;;;;9.35;2.55;;;22.80;49.60;;;;;;5164110;28;20044;-59
2021/05/31 11:38:12;;;;;;;;;;;22.80;49.90;;;;;;5166686;28;25232;-55
2021/05/31 11:40:45;;;;;;;9.93;2.72;;;22.80;49.80;;;;;;5164185;28;19935;-59
2021/05/31 11:43:18;;;;;;;4.35;2.45;;;22.80;49.60;;;;;;5176879;28;20497;-58
2021/05/31 11:45:50;;;;;;;7.40;2.78;;;22.80;49.60;;;;;;5175918;28;20041;-55
2021/05/31 11:48:23;;;;;;;8.73;2.70;;;22.80;49.50;;;;;;5177973;28;20060;-56
2021/05/31 11:50:58;;;;;;;16.23;3.58;;;22.80;49.30;;;;;;5163153;28;20040;-53
2021/05/31 11:53:30;;;;;;;9.63;2.55;;;22.80;49.20;;;;;;5165286;28;20053;-59
2021/05/31 11:56:03;;;;;;;21.38;3.33;;;22.80;49.00;;;;;;5164133;28;20048;-59
2021/05/31 11:58:42;;;;;;;11.33;3.57;;;22.80;49.00;;;;;;5186377;28;20057;-57
2021/05/31 12:01:15;;;;;;;11.40;3.33;;;22.80;49.00;;;;;;5169437;28;20044;-55
2021/05/31 12:03:48;;;;;;;11.65;3.00;;;22.90;49.00;;;;;;5175407;28;20064;-54
2021/05/31 12:06:21;;;;;;;12.55;3.25;;;22.90;49.50;;;;;;5173588;28;20045;-55
2021/05/31 12:08:54;;;;;;;12.95;3.60;;;22.90;49.40;;;;;;5191515;28;20045;-56
2021/05/31 12:11:27;;;;;;;13.37;4.23;;;22.90;49.30;;;;;;5193420;28;20044;-55
2021/05/31 12:14:01;;;;;;;8.05;2.90;;;22.90;49.10;;;;;;5193399;28;20349;-56
2021/05/31 12:16:35;;;;;;;11.75;2.95;;;22.90;49.50;;;;;;5196231;28;20044;-55
2021/05/31 12:19:15;;;;;;;9.95;3.47;;;22.90;49.20;;;;;;5194512;28;20045;-53
2021/05/31 12:21:48;;;;;;;11.50;3.17;;;22.90;49.50;;;;;;5186555;28;20433;-57
2021/05/31 12:24:28;;;;;;;12.13;3.60;;;22.90;49.40;;;;;;5183272;28;20044;-56
2021/05/31 12:27:02;;;;;;;13.25;3.22;;;22.90;49.40;;;;;;5195148;28;20048;-55
2021/05/31 12:29:48;;;;;;;9.07;2.92;;;22.90;49.40;;;;;;5195437;28;20667;-57
2021/05/31 12:32:23;;;;;;;12.30;3.35;;;22.90;49.40;;;;;;5193012;28;20115;-53
2021/05/31 12:34:57;;;;;;;6.88;3.60;;;22.90;49.50;;;;;;5193964;28;20052;-56
2021/05/31 12:37:31;;;;;;;18.27;3.08;;;22.90;49.60;;;;;;5196353;28;20045;-55
2021/05/31 12:40:08;;;;;;;10.27;3.35;;;22.90;49.50;;;;;;5186399;28;20045;-57
2021/05/31 12:42:41;;;;;;;7.32;2.95;;;22.90;49.50;;;;;;5187907;28;20049;-56
2021/05/31 12:45:18;;;;;;;12.30;3.53;;;22.90;49.60;;;;;;5186969;28;20053;-56
2021/05/31 12:47:53;;;;;;;10.00;3.88;;;23.00;49.60;;;;;;5186752;28;20064;-56
2021/05/31 12:50:30;;;;;;;10.15;3.15;;;23.00;49.60;;;;;;5189187;28;20265;-55
2021/05/31 12:53:07;;;;;;;12.43;2.92;;;23.00;49.50;;;;;;5185708;28;20528;-54
2021/05/31 12:55:41;;;;;;;11.35;3.10;;;23.00;49.70;;;;;;5189216;28;20052;-56
2021/05/31 12:58:14;;;;;;;;;;;23.00;49.60;;;;;;5185859;28;20124;-57
2021/05/31 13:00:47;;;;;;;11.68;2.90;;;23.00;49.60;;;;;;5179220;28;20391;-54
2021/05/31 13:03:20;;;;;;;8.73;2.78;;;22.90;49.60;;;;;;5183408;28;20588;-53
2021/05/31 13:05:53;;;;;;;7.82;2.70;;;22.90;49.50;;;;;;5185652;28;20112;-53
2021/05/31 13:08:37;;;;;;;10.87;2.57;;;22.90;49.50;;;;;;5182946;28;20060;-54
2021/05/31 13:11:10;;;;;;;;;;;22.90;49.50;;;;;;5178707;28;20311;-54
2021/05/31 13:13:42;;;;;;;8.10;3.40;;;22.90;49.50;;;;;;5183070;28;19924;-57
2021/05/31 13:16:14;;;;;;;9.45;2.88;;;22.90;49.30;;;;;;5179765;28;20049;-54
2021/05/31 13:18:49;;;;;;;9.90;3.15;;;22.90;49.10;;;;;;5179753;28;20056;-55
2021/05/31 13:21:22;;;;;;;10.52;3.15;;;22.90;49.00;;;;;;5157416;28;21700;-55
2021/05/31 13:23:55;;;;;;;8.80;3.13;;;22.90;49.00;;;;;;5166627;28;20505;-56
2021/05/31 13:26:33;;;;;;;15.25;3.30;;;22.90;48.90;;;;;;5161665;28;20053;-60
2021/05/31 13:29:06;;;;;;;4.93;2.75;;;22.90;48.90;;;;;;5166631;28;20574;-55
2021/05/31 13:31:39;;;;;;;10.10;3.60;;;22.90;48.90;;;;;;5166780;28;20912;-52
2021/05/31 13:34:12;;;;;;;9.35;2.97;;;22.90;48.80;;;;;;5162478;28;20049;-54
2021/05/31 13:36:45;;;;;;;8.45;3.25;;;22.90;48.60;;;;;;5167811;28;20596;-54
2021/05/31 13:39:19;;;;;;;9.10;2.87;;;22.90;48.40;;;;;;5171871;28;20525;-58
2021/05/31 13:41:53;;;;;;;10.40;2.97;;;22.90;48.20;;;;;;5168710;28;20057;-53
2021/05/31 13:44:27;;;;;;;;;;;22.90;48.30;;;;;;5176064;28;20444;-56
2021/05/31 13:47:00;;;;;;;;;;;22.90;47.90;;;;;;5164641;28;19929;-53
2021/05/31 13:49:32;;;;;;;11.05;2.92;;;22.90;47.80;;;;;;5165399;28;20399;-56
2021/05/31 13:52:05;;;;;;;6.33;2.50;;;22.80;47.70;;;;;;5165838;28;20056;-54
2021/05/31 13:54:38;;;;;;;5.53;2.45;;;22.80;47.80;;;;;;5169586;28;20041;-54
2021/05/31 13:57:10;;;;;;;7.53;3.17;;;22.90;47.80;;;;;;5166794;28;20444;-55
2021/05/31 13:59:43;;;;;;;5.78;3.10;;;22.80;45.40;;;;;;5177359;28;20063;-60
2021/05/31 14:02:15;;;;;;;6.28;3.50;;;22.80;43.30;;;;;;5169094;28;20048;-56
2021/05/31 14:04:48;;;;;;;5.87;3.17;;;22.80;43.20;;;;;;5157057;28;20037;-55
2021/05/31 14:07:20;;;;;;;5.63;3.10;;;22.80;42.70;;;;;;5166317;28;20060;-55
2021/05/31 14:09:55;;;;;;;5.93;3.22;;;22.70;43.30;;;;;;5171967;28;21993;-56
2021/05/31 14:12:28;;;;;;;5.38;3.10;;;22.70;43.20;;;;;;5169655;28;20049;-59
2021/05/31 14:15:00;;;;;;;5.10;3.22;;;22.70;43.60;;;;;;5169038;28;20049;-55
2021/05/31 14:17:34;;;;;;;4.55;2.97;;;22.80;43.30;;;;;;5160950;28;20056;-58
2021/05/31 14:20:06;;;;;;;;;;;22.70;43.40;;;;;;5150551;28;21016;-56
2021/05/31 14:22:40;;;;;;;4.30;2.90;;;22.70;43.00;;;;;;5143806;28;20484;-57
2021/05/31 14:25:14;;;;;;;3.85;3.25;;;22.70;43.70;;;;;;5159920;28;20056;-57
2021/05/31 14:27:47;;;;;;;8.20;3.00;;;22.70;42.70;;;;;;5147947;28;20380;-55
2021/05/31 14:30:21;;;;;;;4.28;3.17;;;22.60;43.60;;;;;;5163186;28;20396;-54
2021/05/31 14:32:58;;;;;;;6.43;3.03;;;22.70;43.60;;;;;;5159747;28;20064;-59
2021/05/31 14:35:31;;;;;;;6.22;2.83;;;22.70;43.90;;;;;;5156248;28;20509;-55
2021/05/31 14:38:04;;;;;;;;;;;22.70;44.30;;;;;;5153330;28;20053;-52
2021/05/31 14:40:37;;;;;;;10.25;3.05;;;22.80;44.70;;;;;;5153813;28;20500;-55
2021/05/31 14:43:09;;;;;;;11.10;3.13;;;22.90;45.00;;;;;;5156665;28;20064;-51
2021/05/31 14:45:42;;;;;;;5.65;2.70;;;22.90;45.10;;;;;;5152415;28;20127;-55
2021/05/31 14:48:14;;;;;;;9.80;3.40;;;22.80;45.20;;;;;;5150163;28;20045;-57
2021/05/31 14:50:47;;;;;;;8.63;3.60;;;22.80;45.30;;;;;;5137520;28;20615;-58
2021/05/31 14:53:19;;;;;;;7.70;2.90;;;22.80;45.40;;;;;;5135665;28;20052;-56
2021/05/31 14:55:52;;;;;;;8.18;3.15;;;22.80;45.40;;;;;;5150772;28;20045;-56
2021/05/31 14:58:25;;;;;;;6.47;3.00;;;22.80;45.50;;;;;;5150205;28;20663;-58
2021/05/31 15:00:59;;;;;;;5.97;2.75;;;22.80;45.50;;;;;;5138211;28;20049;-56
2021/05/31 15:03:33;;;;;;;6.85;3.20;;;22.80;45.60;;;;;;5147026;28;20060;-56
2021/05/31 15:06:06;;;;;;;13.20;3.42;;;22.80;45.60;;;;;;5156122;28;20072;-58
2021/05/31 15:08:40;;;;;;;10.98;3.08;;;22.80;45.70;;;;;;5161545;28;20044;-55
2021/05/31 15:11:13;;;;;;;8.35;3.33;;;22.80;45.70;;;;;;5157975;28;20045;-56
2021/05/31 15:13:46;;;;;;;6.40;3.05;;;22.80;45.70;;;;;;5164283;28;20415;-57
2021/05/31 15:16:19;;;;;;;7.68;3.35;;;22.80;45.70;;;;;;5165094;28;20323;-53
2021/05/31 15:18:52;;;;;;;11.77;2.85;;;22.80;45.80;;;;;;5157883;28;20046;-55
2021/05/31 15:21:26;;;;;;;7.80;2.80;;;22.80;45.80;;;;;;5147821;28;20524;-58
2021/05/31 15:23:59;;;;;;;5.50;3.10;;;22.80;45.80;;;;;;5159462;28;20049;-58
2021/05/31 15:26:31;;;;;;;5.97;2.50;;;22.80;45.70;;;;;;5157210;28;20048;-57
2021/05/31 15:29:04;;;;;;;9.50;3.03;;;22.80;45.80;;;;;;5157847;28;20608;-56
2021/05/31 15:31:41;;;;;;;7.20;2.70;;;22.80;45.70;;;;;;5162276;28;20060;-60
2021/05/31 15:34:14;;;;;;;6.90;2.80;;;22.80;45.80;;;;;;5158643;28;20053;-59
2021/05/31 15:36:47;;;;;;;4.95;2.65;;;22.80;45.80;;;;;;5148551;28;20053;-60
2021/05/31 15:39:19;;;;;;;5.03;3.00;;;22.80;45.80;;;;;;5154579;28;20056;-56
2021/05/31 15:41:52;;;;;;;10.77;3.43;;;22.80;45.80;;;;;;5157962;28;20056;-54
2021/05/31 15:44:30;;;;;;;6.57;3.25;;;22.80;45.80;;;;;;5150645;28;20723;-53
2021/05/31 15:47:02;;;;;;;4.82;2.53;;;22.80;45.70;;;;;;5153090;28;20045;-54
2021/05/31 15:49:35;;;;;;;8.95;2.47;;;22.80;45.60;;;;;;5163214;28;20041;-56
2021/05/31 15:52:08;;;;;;;7.85;2.92;;;22.80;45.50;;;;;;5151908;28;20056;-57
2021/05/31 15:54:40;;;;;;;4.80;2.58;;;22.80;45.60;;;;;;5163053;28;20101;-58
2021/05/31 15:57:13;;;;;;;6.73;2.80;;;22.70;45.60;;;;;;5146953;28;20053;-59
2021/05/31 15:59:46;;;;;;;9.15;2.88;;;22.60;43.30;;;;;;5149530;28;20052;-57
2021/05/31 16:02:22;;;;;;;7.18;3.03;;;22.70;43.40;;;;;;5148376;28;20053;-53
2021/05/31 16:04:55;;;;;;;8.80;3.55;;;22.60;44.20;;;;;;5147297;28;20115;-57
2021/05/31 16:07:27;;;;;;;5.20;2.80;;;22.70;44.20;;;;;;5144127;28;20508;-59
2021/05/31 16:10:00;;;;;;;6.68;2.88;;;22.70;44.60;;;;;;5139803;28;20581;-58
2021/05/31 16:12:33;;;;;;;9.23;3.40;;;22.60;44.30;;;;;;5142666;28;20041;-56
2021/05/31 16:15:07;;;;;;;8.27;3.70;;;22.60;44.20;;;;;;5135904;28;20072;-56
2021/05/31 16:17:44;;;;;;;5.38;2.90;;;22.60;44.40;;;;;;5138305;28;20517;-57
2021/05/31 16:20:18;;;;;;;6.45;3.50;;;22.60;44.60;;;;;;5138567;28;20052;-55
2021/05/31 16:22:58;;;;;;;9.23;3.90;;;22.60;44.60;;;;;;5139815;28;20048;-59
2021/05/31 16:25:50;;;;;;;13.57;4.65;;;22.60;44.60;;;;;;5150858;28;20054;-57
2021/05/31 16:28:23;;;;;;;11.88;4.75;;;22.60;44.80;;;;;;5147260;28;20040;-57
2021/05/31 16:30:56;;;;;;;12.77;5.63;;;22.60;44.90;;;;;;5150567;28;20048;-58
2021/05/31 16:33:29;;;;;;;13.68;6.57;;;22.60;44.90;;;;;;5151214;28;20319;-59
2021/05/31 16:36:02;;;;;;;10.63;6.15;;;22.70;45.00;;;;;;5151205;28;20072;-56
2021/05/31 16:38:34;;;;;;;12.20;6.57;;;22.70;45.00;;;;;;5160388;28;20328;-57
2021/05/31 16:41:07;;;;;;;15.10;6.15;;;22.70;45.00;;;;;;5168800;28;21043;-57
2021/05/31 16:43:40;;;;;;;12.97;6.73;;;22.60;45.00;;;;;;5169339;28;20044;-58
2021/05/31 16:46:12;;;;;;;10.65;5.72;;;22.70;45.10;;;;;;5157306;28;20304;-57
2021/05/31 16:48:45;;;;;;;16.00;6.70;;;22.70;45.10;;;;;;5136552;28;20057;-58
2021/05/31 16:51:18;;;;;;;11.30;5.95;;;22.70;45.10;;;;;;5137605;28;20060;-58
2021/05/31 16:53:52;;;;;;;15.00;4.93;;;22.60;45.20;;;;;;5140681;28;20576;-56
2021/05/31 16:56:25;;;;;;;18.23;5.60;;;22.60;43.40;;;;;;5141469;28;20072;-59
2021/05/31 16:58:58;;;;;;;11.00;5.10;;;22.60;44.40;;;;;;5145690;28;20056;-59
2021/05/31 17:01:31;;;;;;;20.52;5.35;;;22.60;44.50;;;;;;5146797;28;20046;-59
2021/05/31 17:04:05;;;;;;;13.37;4.60;;;22.70;44.50;;;;;;5149498;28;20482;-59
2021/05/31 17:06:43;;;;;;;13.70;4.72;;;22.70;44.90;;;;;;5140239;28;20060;-55
2021/05/31 17:09:15;;;;;;;11.05;4.50;;;22.70;45.10;;;;;;5149612;28;20064;-58
2021/05/31 17:20:16;;;;;;;10.43;3.85;;;22.80;45.70;;;;;;5151523;28;20045;-58
2021/05/31 17:22:56;;;;;;;11.95;4.45;;;22.80;46.10;;;;;;5144714;28;20045;-58
2021/05/31 17:25:28;;;;;;;9.85;4.47;;;22.80;46.10;;;;;;5133909;28;20065;-57
2021/05/31 17:28:02;;;;;;;;;;;22.80;46.30;;;;;;5159099;28;20619;-57
2021/05/31 17:30:36;;;;;;;13.65;4.30;;;22.80;46.40;;;;;;5162217;28;19936;-57
2021/05/31 17:33:09;;;;;;;11.00;4.68;;;22.80;46.40;;;;;;5152136;28;20760;-60
2021/05/31 17:35:42;;;;;;;13.47;4.93;;;22.80;46.50;;;;;;5151539;28;20513;-55
2021/05/31 17:38:14;;;;;;;13.77;4.25;;;22.80;46.70;;;;;;5165745;28;20549;-58
2021/05/31 17:40:47;;;;;;;8.75;4.00;;;22.80;46.60;;;;;;5143791;28;20049;-57
2021/05/31 17:43:21;;;;;;;11.35;4.38;;;22.80;46.80;;;;;;5153386;28;20071;-56
2021/05/31 17:45:54;;;;;;;12.57;4.13;;;22.80;46.90;;;;;;5163010;28;20052;-60
2021/05/31 17:48:26;;;;;;;11.02;4.43;;;22.80;47.00;;;;;;5153233;28;20426;-59
2021/05/31 17:50:59;;;;;;;6.97;4.10;;;22.90;47.00;;;;;;5155009;28;20060;-59
2021/05/31 17:53:32;;;;;;;8.97;4.37;;;22.80;47.00;;;;;;5149975;28;20311;-58
2021/05/31 17:56:05;;;;;;;12.82;4.20;;;22.80;47.30;;;;;;5134218;28;20041;-57
2021/05/31 17:58:38;;;;;;;14.68;4.82;;;22.80;47.20;;;;;;5147725;28;20503;-56
2021/05/31 18:01:18;;;;;;;8.38;3.50;;;22.80;47.20;;;;;;5140291;28;20049;-54
2021/05/31 18:03:51;;;;;;;7.07;3.53;;;22.80;47.10;;;;;;5136449;28;20045;-59
2021/05/31 18:06:23;;;;;;;10.77;4.70;;;22.80;47.10;;;;;;5142322;28;20424;-59
2021/05/31 18:08:58;;;;;;;10.85;3.67;;;22.80;47.00;;;;;;5152160;28;20079;-54
2021/05/31 18:11:31;;;;;;;6.00;3.88;;;22.70;47.00;;;;;;5146258;28;20433;-58
2021/05/31 18:14:04;;;;;;;8.50;3.40;;;22.70;46.90;;;;;;5133375;28;20052;-60
2021/05/31 18:16:37;;;;;;;7.43;3.88;;;22.70;46.90;;;;;;5150686;28;20044;-61
2021/05/31 18:19:10;;;;;;;7.63;3.37;;;22.80;46.70;;;;;;5146486;28;21225;-58
2021/05/31 18:21:42;;;;;;;6.63;3.63;;;22.70;46.60;;;;;;5143054;28;20037;-60
2021/05/31 18:24:16;;;;;;;6.35;3.47;;;22.70;46.50;;;;;;5140185;28;20075;-58
2021/05/31 18:26:49;;;;;;;9.23;3.00;;;22.70;46.50;;;;;;5148839;28;20041;-52
2021/05/31 18:29:22;;;;;;;;;;;22.70;46.50;;;;;;5136784;28;20053;-59
2021/05/31 18:31:54;;;;;;;9.13;3.58;;;22.70;46.40;;;;;;5145350;28;19933;-55
2021/05/31 18:34:32;;;;;;;17.38;3.53;;;22.70;46.40;;;;;;5154322;28;20045;-55
2021/05/31 18:37:14;;;;;;;10.10;3.42;;;22.70;46.50;;;;;;5151361;28;20048;-58
2021/05/31 18:39:48;;;;;;;14.82;3.65;;;22.70;46.70;;;;;;5151415;28;20348;-58
2021/05/31 18:42:21;;;;;;;16.75;4.18;;;22.70;46.80;;;;;;5154426;28;20064;-55
2021/05/31 18:44:54;;;;;;;9.75;3.20;;;22.70;47.00;;;;;;5153176;28;20048;-54
2021/05/31 18:47:27;;;;;;;6.82;3.45;;;22.70;47.10;;;;;;5160149;28;20049;-55
2021/05/31 18:49:59;;;;;;;8.13;3.15;;;22.70;47.20;;;;;;5149488;28;20481;-58
2021/05/31 18:52:32;;;;;;;18.58;3.47;;;22.70;47.20;;;;;;5157048;28;20088;-57
2021/05/31 18:55:07;;;;;;;11.57;3.08;;;22.70;47.30;;;;;;5151458;28;20557;-55
2021/05/31 18:57:39;;;;;;;7.68;3.15;;;22.70;47.60;;;;;;5147505;28;20632;-55
2021/05/31 19:00:13;;;;;;;5.60;3.35;;;22.70;47.70;;;;;;5153088;28;20528;-55
2021/05/31 19:02:47;;;;;;;6.30;3.08;;;22.70;47.70;;;;;;5152402;28;20040;-52
2021/05/31 19:05:21;;;;;;;9.88;3.63;;;22.70;47.80;;;;;;5145892;28;20041;-55
2021/05/31 19:07:54;;;;;;;9.50;4.18;;;22.70;47.90;;;;;;5155012;28;20430;-56
2021/05/31 19:10:27;;;;;;;4.05;2.55;;;22.70;47.90;;;;;;5159067;28;20045;-54
2021/05/31 19:13:03;;;;;;;9.32;3.17;;;22.80;48.00;;;;;;5168419;28;20056;-56
2021/05/31 19:15:35;;;;;;;8.23;2.72;;;22.70;48.00;;;;;;5160163;28;20060;-57
2021/05/31 19:18:08;;;;;;;9.82;3.10;;;22.80;48.20;;;;;;5164607;28;20048;-60
2021/05/31 19:20:41;;;;;;;9.30;2.85;;;22.70;48.20;;;;;;5154583;28;20563;-54
2021/05/31 19:23:13;;;;;;;6.28;3.15;;;22.80;48.30;;;;;;5151313;28;20588;-57
2021/05/31 19:25:51;;;;;;;11.35;3.80;;;22.80;48.40;;;;;;5137937;28;20060;-57
2021/05/31 19:28:24;;;;;;;7.70;3.17;;;22.80;48.30;;;;;;5146713;28;20865;-57
2021/05/31 19:30:57;;;;;;;9.38;3.58;;;22.70;48.20;;;;;;5141339;28;20060;-57
2021/05/31 19:33:30;;;;;;;5.60;2.65;;;22.70;48.10;;;;;;5145824;28;20627;-58
2021/05/31 19:36:03;;;;;;;5.70;2.80;;;22.70;48.40;;;;;;5150694;28;20072;-58
2021/05/31 19:38:37;;;;;;;7.88;3.15;;;22.70;47.90;;;;;;5148077;28;20049;-58
2021/05/31 19:41:10;;;;;;;6.68;3.38;;;22.70;47.90;;;;;;5156519;28;20045;-56
2021/05/31 19:43:42;;;;;;;8.57;3.00;;;22.70;47.80;;;;;;5161155;28;20056;-56
2021/05/31 19:46:15;;;;;;;5.57;2.78;;;22.70;47.80;;;;;;5153356;28;20049;-56
2021/05/31 19:48:48;;;;;;;7.78;2.70;;;22.70;47.80;;;;;;5169345;28;20613;-57
2021/05/31 19:51:28;;;;;;;11.45;3.17;;;22.70;47.70;;;;;;5155152;28;20053;-57
2021/05/31 19:59:49;;;;;;;27.25;3.53;;;22.70;47.90;;;;;;5134162;28;20057;-58
2021/05/31 20:02:26;;;;;;;12.18;3.63;;;22.60;48.00;;;;;;5135764;28;20369;-57
2021/05/31 20:04:58;;;;;;;14.07;3.40;;;22.70;48.20;;;;;;5128476;28;20056;-53
